createdAt,value
2022-11-01T00:01:27.771Z,100988.53
2022-11-01T00:03:54.429Z,100987.56
2022-11-01T00:06:22.710Z,100976.16
2022-11-01T00:08:49.708Z,100976.38
2022-11-01T00:11:17.863Z,100974.28
2022-11-01T00:13:45.798Z,100979.84
2022-11-01T00:16:13.971Z,100965.81
2022-11-01T00:18:40.979Z,100952.59
2022-11-01T00:21:07.755Z,100949.78
2022-11-01T00:23:34.448Z,100943.97
2022-11-01T00:26:01.711Z,100936.88
2022-11-01T00:28:29.072Z,100928.53
2022-11-01T00:30:57.029Z,100928.72
2022-11-01T00:33:24.456Z,100931.00
2022-11-01T00:35:51.291Z,100923.84
2022-11-01T00:38:18.680Z,100909.44
2022-11-01T00:40:46.359Z,100914.88
2022-11-01T00:43:13.127Z,100914.69
2022-11-01T00:45:39.857Z,100914.75
2022-11-01T00:48:07.344Z,100905.97
2022-11-01T00:50:35.851Z,100906.69
2022-11-01T00:53:02.550Z,100895.97
2022-11-01T00:55:29.248Z,100900.56
2022-11-01T00:57:55.851Z,100890.06
2022-11-01T01:00:22.473Z,100883.59
2022-11-01T01:02:49.203Z,100881.97
2022-11-01T01:05:16.173Z,100877.84
2022-11-01T01:07:42.951Z,100879.50
2022-11-01T01:10:09.550Z,100880.25
2022-11-01T01:12:36.300Z,100884.00
2022-11-01T01:15:03.250Z,100883.94
2022-11-01T01:17:32.819Z,100879.50
2022-11-01T01:20:00.594Z,100870.22
2022-11-01T01:22:28.472Z,100866.91
2022-11-01T01:24:55.073Z,100872.81
2022-11-01T01:27:21.707Z,100855.06
2022-11-01T01:29:48.331Z,100864.97
2022-11-01T01:32:16.688Z,100885.00
2022-11-01T01:34:43.293Z,100899.91
2022-11-01T01:37:10.388Z,100876.03
2022-11-01T01:39:37.204Z,100896.13
2022-11-01T01:42:28.836Z,100890.56
2022-11-01T01:44:55.346Z,100887.88
2022-11-01T01:47:28.012Z,100903.13
2022-11-01T01:50:00.643Z,100890.09
2022-11-01T01:52:32.065Z,100891.75
2022-11-01T01:55:00.206Z,100864.88
2022-11-01T01:57:26.926Z,100869.31
2022-11-01T01:59:53.919Z,100863.13
2022-11-01T02:02:21.287Z,100847.13
2022-11-01T02:04:52.471Z,100847.97
2022-11-01T02:07:19.102Z,100833.81
2022-11-01T02:09:45.750Z,100830.50
2022-11-01T02:12:13.478Z,100826.72
2022-11-01T02:14:42.351Z,100828.59
2022-11-01T02:17:29.484Z,100830.34
2022-11-01T02:20:10.622Z,100817.38
2022-11-01T02:22:56.938Z,100808.25
2022-11-01T02:25:34.477Z,100810.25
2022-11-01T02:28:43.087Z,100806.47
2022-11-01T02:31:54.366Z,100803.72
2022-11-01T02:34:31.192Z,100800.28
2022-11-01T02:37:01.876Z,100796.81
2022-11-01T02:39:32.923Z,100797.50
2022-11-01T02:42:03.014Z,100801.09
2022-11-01T02:44:33.659Z,100800.25
2022-11-01T02:47:01.467Z,100785.97
2022-11-01T02:49:43.514Z,100788.88
2022-11-01T02:52:22.146Z,100800.13
2022-11-01T02:54:56.528Z,100793.81
2022-11-01T02:57:29.051Z,100781.50
2022-11-01T03:00:03.137Z,100784.31
2022-11-01T03:02:40.094Z,100786.22
2022-11-01T03:05:11.638Z,100776.97
2022-11-01T03:07:40.010Z,100774.31
2022-11-01T03:10:07.135Z,100758.88
2022-11-01T03:12:37.272Z,100755.25
2022-11-01T03:15:30.204Z,100750.06
2022-11-01T03:18:01.831Z,100746.16
2022-11-01T03:20:47.542Z,100745.19
2022-11-01T03:23:23.737Z,100738.09
2022-11-01T03:25:56.045Z,100743.53
2022-11-01T03:28:25.321Z,100740.25
2022-11-01T03:31:14.505Z,100747.38
2022-11-01T03:33:45.599Z,100744.41
2022-11-01T03:36:18.252Z,100748.09
2022-11-01T03:38:52.544Z,100736.25
2022-11-01T03:41:19.967Z,100737.31
2022-11-01T03:43:47.729Z,100730.94
2022-11-01T03:46:15.473Z,100745.47
2022-11-01T03:48:42.164Z,100737.22
2022-11-01T03:51:08.930Z,100728.44
2022-11-01T03:53:35.516Z,100731.19
2022-11-01T03:56:02.451Z,100729.72
2022-11-01T03:58:41.682Z,100733.97
2022-11-01T04:01:09.565Z,100742.66
2022-11-01T04:03:36.393Z,100749.09
2022-11-01T04:06:03.314Z,100751.91
2022-11-01T04:08:29.933Z,100743.25
2022-11-01T04:10:56.648Z,100760.19
2022-11-01T04:13:23.303Z,100762.78
2022-11-01T04:16:09.690Z,100758.16
2022-11-01T04:18:54.962Z,100766.78
2022-11-01T04:21:23.884Z,100770.38
2022-11-01T04:23:50.525Z,100766.06
2022-11-01T04:26:19.137Z,100759.91
2022-11-01T04:28:56.869Z,100761.69
2022-11-01T04:31:31.036Z,100754.78
2022-11-01T04:33:58.714Z,100762.84
2022-11-01T04:36:25.684Z,100750.59
2022-11-01T04:38:55.704Z,100737.13
2022-11-01T04:41:24.100Z,100731.13
2022-11-01T04:43:53.311Z,100732.13
2022-11-01T04:46:19.934Z,100731.13
2022-11-01T04:48:46.614Z,100724.19
2022-11-01T04:51:13.612Z,100717.75
2022-11-01T04:53:40.320Z,100725.91
2022-11-01T04:56:09.034Z,100730.38
2022-11-01T04:58:40.035Z,100719.97
2022-11-01T05:01:09.926Z,100729.13
2022-11-01T05:03:36.696Z,100727.38
2022-11-01T05:06:03.342Z,100731.03
2022-11-01T05:08:29.969Z,100732.94
2022-11-01T05:10:56.844Z,100732.09
2022-11-01T05:13:23.502Z,100733.44
2022-11-01T05:16:06.518Z,100723.97
2022-11-01T05:18:36.869Z,100709.16
2022-11-01T05:21:03.521Z,100713.38
2022-11-01T05:23:30.196Z,100700.22
2022-11-01T05:25:56.892Z,100692.31
2022-11-01T05:28:23.767Z,100700.44
2022-11-01T05:30:50.374Z,100704.00
2022-11-01T05:33:17.058Z,100720.78
2022-11-01T05:35:43.706Z,100711.91
2022-11-01T05:38:10.358Z,100694.50
2022-11-01T05:40:37.082Z,100686.84
2022-11-01T05:43:04.021Z,100702.50
2022-11-01T05:45:31.005Z,100693.63
2022-11-01T05:48:03.392Z,100690.16
2022-11-01T05:50:30.111Z,100691.13
2022-11-01T05:53:04.812Z,100698.09
2022-11-01T05:55:31.495Z,100688.22
2022-11-01T05:57:58.745Z,100686.50
2022-11-01T06:00:25.393Z,100684.97
2022-11-01T06:02:52.064Z,100676.97
2022-11-01T06:05:18.755Z,100675.16
2022-11-01T06:07:45.403Z,100684.97
2022-11-01T06:10:11.991Z,100685.84
2022-11-01T06:12:38.644Z,100676.38
2022-11-01T06:15:05.557Z,100677.00
2022-11-01T06:17:32.134Z,100670.09
2022-11-01T06:19:58.742Z,100665.09
2022-11-01T06:22:25.566Z,100661.44
2022-11-01T06:24:52.232Z,100657.47
2022-11-01T06:27:18.852Z,100670.72
2022-11-01T06:29:45.461Z,100669.00
2022-11-01T06:32:12.066Z,100666.78
2022-11-01T06:34:44.089Z,100689.41
2022-11-01T06:37:11.784Z,100696.69
2022-11-01T06:39:38.528Z,100694.03
2022-11-01T06:42:05.323Z,100683.28
2022-11-01T06:44:32.023Z,100683.28
2022-11-01T06:46:58.630Z,100683.13
2022-11-01T06:49:25.485Z,100680.72
2022-11-01T06:51:52.121Z,100691.94
2022-11-01T06:54:18.881Z,100690.38
2022-11-01T06:56:47.702Z,100693.22
2022-11-01T06:59:16.470Z,100695.22
2022-11-01T07:01:44.045Z,100685.38
2022-11-01T07:06:38.363Z,100681.28
2022-11-01T07:09:05.643Z,100673.16
2022-11-01T07:11:33.309Z,100677.50
2022-11-01T07:13:59.960Z,100668.91
2022-11-01T07:16:27.085Z,100678.47
2022-11-01T07:18:53.821Z,100706.50
2022-11-01T07:21:20.470Z,100716.44
2022-11-01T07:23:47.153Z,100716.47
2022-11-01T07:26:13.812Z,100707.78
2022-11-01T07:28:40.894Z,100710.00
2022-11-01T07:31:07.863Z,100703.13
2022-11-01T07:33:35.083Z,100696.97
2022-11-01T07:36:02.316Z,100696.97
2022-11-01T07:38:29.197Z,100691.25
2022-11-01T07:40:55.834Z,100690.97
2022-11-01T07:43:22.585Z,100704.44
2022-11-01T07:45:49.802Z,100703.75
2022-11-01T07:48:17.878Z,100709.03
2022-11-01T07:50:45.771Z,100708.06
2022-11-01T07:53:17.666Z,100707.09
2022-11-01T07:55:45.479Z,100704.34
2022-11-01T07:58:12.797Z,100708.06
2022-11-01T08:00:39.890Z,100714.19
2022-11-01T08:03:12.702Z,100717.09
2022-11-01T08:05:40.129Z,100713.84
2022-11-01T08:08:07.867Z,100719.06
2022-11-01T08:10:34.970Z,100712.59
2022-11-01T08:13:07.778Z,100715.09
2022-11-01T08:15:34.484Z,100738.31
2022-11-01T08:18:01.815Z,100740.75
2022-11-01T08:20:29.101Z,100744.19
2022-11-01T08:22:55.968Z,100745.94
2022-11-01T08:25:22.668Z,100739.59
2022-11-01T08:27:49.653Z,100743.94
2022-11-01T08:30:17.822Z,100749.78
2022-11-01T08:32:45.285Z,100752.28
2022-11-01T08:35:12.555Z,100748.75
2022-11-01T08:37:50.178Z,100735.25
2022-11-01T08:40:17.307Z,100744.13
2022-11-01T08:42:43.946Z,100730.38
2022-11-01T08:45:11.911Z,100739.09
2022-11-01T08:47:39.509Z,100730.50
2022-11-01T08:50:10.998Z,100739.09
2022-11-01T08:52:37.909Z,100737.44
2022-11-01T08:55:05.104Z,100728.25
2022-11-01T08:57:31.713Z,100737.25
2022-11-01T08:59:58.399Z,100732.69
2022-11-01T09:02:25.162Z,100741.53
2022-11-01T09:04:51.993Z,100749.41
2022-11-01T09:07:19.171Z,100749.25
2022-11-01T09:09:46.632Z,100746.34
2022-11-01T09:12:14.684Z,100746.22
2022-11-01T09:14:41.852Z,100727.75
2022-11-01T09:17:08.589Z,100738.13
2022-11-01T09:19:35.244Z,100735.41
2022-11-01T09:22:01.979Z,100734.94
2022-11-01T09:24:28.671Z,100729.44
2022-11-01T09:26:55.243Z,100740.28
2022-11-01T09:29:22.034Z,100746.38
2022-11-01T09:31:52.944Z,100741.22
2022-11-01T09:34:20.427Z,100737.72
2022-11-01T09:36:47.796Z,100742.84
2022-11-01T09:39:16.501Z,100744.13
2022-11-01T09:41:47.336Z,100744.88
2022-11-01T09:44:17.241Z,100757.16
2022-11-01T09:46:47.589Z,100757.03
2022-11-01T09:49:20.622Z,100753.28
2022-11-01T09:51:47.393Z,100749.63
2022-11-01T09:54:14.146Z,100739.34
2022-11-01T09:56:52.651Z,100734.72
2022-11-01T09:59:33.298Z,100737.28
2022-11-01T10:02:30.433Z,100745.19
2022-11-01T10:05:05.871Z,100755.75
2022-11-01T10:07:54.236Z,100751.16
2022-11-01T10:10:47.270Z,100740.25
2022-11-01T10:13:26.380Z,100745.44
2022-11-01T10:16:08.236Z,100749.81
2022-11-01T10:19:02.139Z,100760.81
2022-11-01T10:21:42.714Z,100771.56
2022-11-01T10:24:19.871Z,100787.25
2022-11-01T10:26:48.974Z,100797.78
2022-11-01T10:29:22.317Z,100791.09
2022-11-01T10:31:51.889Z,100791.13
2022-11-01T10:34:25.160Z,100791.38
2022-11-01T10:36:53.945Z,100786.19
2022-11-01T10:40:01.408Z,100783.56
2022-11-01T10:42:29.886Z,100783.66
2022-11-01T10:45:00.098Z,100777.16
2022-11-01T10:47:28.186Z,100770.09
2022-11-01T10:50:08.523Z,100774.97
2022-11-01T10:53:06.682Z,100780.31
2022-11-01T10:55:42.706Z,100770.53
2022-11-01T10:58:19.412Z,100778.72
2022-11-01T11:00:46.347Z,100778.66
2022-11-01T11:03:24.592Z,100777.81
2022-11-01T11:05:52.357Z,100773.75
2022-11-01T11:08:21.685Z,100779.50
2022-11-01T11:10:48.962Z,100768.19
2022-11-01T11:13:19.948Z,100767.50
2022-11-01T11:15:53.869Z,100764.69
2022-11-01T11:18:29.445Z,100767.88
2022-11-01T11:21:00.255Z,100764.06
2022-11-01T11:23:33.136Z,100769.09
2022-11-01T11:26:09.141Z,100764.56
2022-11-01T11:28:42.591Z,100756.69
2022-11-01T11:31:27.261Z,100770.47
2022-11-01T11:33:56.914Z,100764.50
2022-11-01T11:36:34.837Z,100767.53
2022-11-01T11:39:02.845Z,100769.09
2022-11-01T11:41:39.171Z,100765.50
2022-11-01T11:44:35.097Z,100777.03
2022-11-01T11:47:03.146Z,100785.50
2022-11-01T11:49:29.913Z,100791.78
2022-11-01T11:51:56.531Z,100784.78
2022-11-01T11:54:32.260Z,100789.66
2022-11-01T11:57:11.639Z,100798.91
2022-11-01T11:59:40.710Z,100797.16
2022-11-01T12:02:16.946Z,100791.84
2022-11-01T12:04:54.165Z,100796.31
2022-11-01T12:07:24.084Z,100794.25
2022-11-01T12:09:51.226Z,100802.03
2022-11-01T12:12:19.809Z,100802.97
2022-11-01T12:14:46.419Z,100807.63
2022-11-01T12:17:35.914Z,100803.25
2022-11-01T12:20:18.438Z,100808.22
2022-11-01T12:22:49.552Z,100813.63
2022-11-01T12:25:21.973Z,100816.28
2022-11-01T12:27:55.039Z,100820.44
2022-11-01T12:30:24.967Z,100808.72
2022-11-01T12:32:59.447Z,100811.38
2022-11-01T12:35:42.536Z,100807.06
2022-11-01T12:38:45.636Z,100807.56
2022-11-01T12:41:27.887Z,100814.41
2022-11-01T12:44:05.967Z,100812.16
2022-11-01T12:46:46.737Z,100808.59
2022-11-01T12:49:24.284Z,100816.56
2022-11-01T12:51:54.444Z,100817.91
2022-11-01T12:54:27.339Z,100811.94
2022-11-01T12:56:56.037Z,100813.31
2022-11-01T12:59:32.117Z,100802.94
2022-11-01T13:02:19.789Z,100810.31
2022-11-01T13:05:16.287Z,100817.53
2022-11-01T13:07:54.635Z,100818.19
2022-11-01T13:10:33.597Z,100813.31
2022-11-01T13:13:20.732Z,100815.66
2022-11-01T13:16:17.966Z,100824.97
2022-11-01T13:19:10.856Z,100820.34
2022-11-01T13:21:57.694Z,100806.47
2022-11-01T13:24:50.329Z,100813.25
2022-11-01T13:27:29.086Z,100813.38
2022-11-01T13:30:25.404Z,100829.31
2022-11-01T13:32:59.291Z,100816.66
2022-11-01T13:35:44.817Z,100823.19
2022-11-01T13:38:19.084Z,100813.38
2022-11-01T13:41:05.024Z,100829.75
2022-11-01T13:43:39.876Z,100837.88
2022-11-01T13:46:06.371Z,100837.69
2022-11-01T13:48:45.412Z,100838.56
2022-11-01T13:51:18.769Z,100838.38
2022-11-01T13:53:50.151Z,100846.84
2022-11-01T13:56:37.191Z,100845.34
2022-11-01T13:59:13.678Z,100837.88
2022-11-01T14:01:40.617Z,100833.63
2022-11-01T14:04:08.420Z,100835.50
2022-11-01T14:06:36.626Z,100845.28
2022-11-01T14:09:28.336Z,100840.88
2022-11-01T14:12:04.248Z,100844.41
2022-11-01T14:14:30.867Z,100841.91
2022-11-01T14:17:15.876Z,100841.31
2022-11-01T14:19:43.401Z,100846.72
2022-11-01T14:22:33.699Z,100842.13
2022-11-01T14:25:02.658Z,100842.19
2022-11-01T14:27:29.783Z,100835.91
2022-11-01T14:29:56.650Z,100828.66
2022-11-01T14:32:25.751Z,100841.19
2022-11-01T14:35:12.202Z,100848.13
2022-11-01T14:37:44.514Z,100855.81
2022-11-01T14:40:27.829Z,100858.53
2022-11-01T14:42:57.785Z,100855.59
2022-11-01T14:45:39.841Z,100862.34
2022-11-01T14:48:22.067Z,100864.38
2022-11-01T14:50:54.919Z,100859.88
2022-11-01T14:53:27.884Z,100854.88
2022-11-01T14:56:17.520Z,100865.53
2022-11-01T14:58:44.920Z,100866.31
2022-11-01T15:01:17.441Z,100870.97
2022-11-01T15:03:55.516Z,100873.03
2022-11-01T15:06:24.776Z,100883.22
2022-11-01T15:08:51.403Z,100880.56
2022-11-01T15:11:18.276Z,100875.72
2022-11-01T15:13:45.574Z,100891.28
2022-11-01T15:16:18.255Z,100886.28
2022-11-01T15:18:54.186Z,100884.75
2022-11-01T15:21:25.511Z,100889.69
2022-11-01T15:23:58.783Z,100882.13
2022-11-01T15:26:27.629Z,100890.41
2022-11-01T15:28:57.529Z,100894.31
2022-11-01T15:31:24.543Z,100894.72
2022-11-01T15:33:58.428Z,100894.09
2022-11-01T15:36:34.649Z,100898.91
2022-11-01T15:39:19.317Z,100891.22
2022-11-01T15:41:49.749Z,100889.75
2022-11-01T15:44:30.200Z,100891.72
2022-11-01T15:47:01.446Z,100895.63
2022-11-01T15:49:32.164Z,100894.25
2022-11-01T15:52:04.289Z,100900.47
2022-11-01T15:55:01.196Z,100905.09
2022-11-01T15:57:38.234Z,100911.56
2022-11-01T16:00:06.710Z,100910.91
2022-11-01T16:02:41.824Z,100914.78
2022-11-01T16:05:12.133Z,100912.41
2022-11-01T16:07:40.233Z,100913.59
2022-11-01T16:10:09.378Z,100918.97
2022-11-01T16:12:39.190Z,100920.81
2022-11-01T16:15:08.923Z,100926.13
2022-11-01T16:17:39.585Z,100924.53
2022-11-01T16:20:29.260Z,100926.38
2022-11-01T16:22:57.623Z,100931.75
2022-11-01T16:25:26.668Z,100934.59
2022-11-01T16:28:05.997Z,100940.09
2022-11-01T16:30:46.393Z,100941.09
2022-11-01T16:33:26.412Z,100944.75
2022-11-01T16:35:55.500Z,100951.97
2022-11-01T16:38:23.887Z,100945.94
2022-11-01T16:40:56.223Z,100945.09
2022-11-01T16:43:24.552Z,100948.69
2022-11-01T16:45:51.395Z,100946.22
2022-11-01T16:48:24.189Z,100951.63
2022-11-01T16:50:52.420Z,100947.94
2022-11-01T16:53:20.249Z,100955.34
2022-11-01T16:55:57.833Z,100958.16
2022-11-01T16:58:29.295Z,100966.22
2022-11-01T17:01:01.868Z,100965.47
2022-11-01T17:03:32.173Z,100967.34
2022-11-01T17:06:02.265Z,100973.38
2022-11-01T17:08:34.686Z,100975.41
2022-11-01T17:11:01.631Z,100979.91
2022-11-01T17:13:31.368Z,100986.78
2022-11-01T17:15:58.019Z,100984.28
2022-11-01T17:18:34.563Z,100983.56
2022-11-01T17:21:02.342Z,100995.09
2022-11-01T17:23:29.323Z,100992.53
2022-11-01T17:25:56.256Z,101003.13
2022-11-01T17:28:26.188Z,101004.00
2022-11-01T17:30:53.332Z,101010.13
2022-11-01T17:33:20.518Z,101008.34
2022-11-01T17:35:47.813Z,101010.13
2022-11-01T17:38:17.658Z,101005.75
2022-11-01T17:40:47.430Z,101012.91
2022-11-01T17:43:18.900Z,101023.50
2022-11-01T17:45:46.522Z,101023.59
2022-11-01T17:48:13.424Z,101022.78
2022-11-01T17:50:40.305Z,101020.22
2022-11-01T17:53:07.875Z,101021.09
2022-11-01T17:55:35.665Z,101024.66
2022-11-01T17:58:03.095Z,101022.88
2022-11-01T18:00:30.050Z,101023.81
2022-11-01T18:02:56.945Z,101031.75
2022-11-01T18:05:23.649Z,101028.31
2022-11-01T18:07:52.750Z,101039.72
2022-11-01T18:10:51.983Z,101041.47
2022-11-01T18:13:40.749Z,101040.63
2022-11-01T18:16:07.276Z,101039.75
2022-11-01T18:18:48.349Z,101040.66
2022-11-01T18:21:26.580Z,101040.75
2022-11-01T18:23:54.540Z,101042.41
2022-11-01T18:26:23.051Z,101050.50
2022-11-01T18:28:55.440Z,101041.78
2022-11-01T18:31:27.560Z,101042.72
2022-11-01T18:34:28.568Z,101045.50
2022-11-01T18:37:03.701Z,101044.75
2022-11-01T18:40:05.709Z,101049.19
2022-11-01T18:42:32.532Z,101048.47
2022-11-01T18:45:09.176Z,101045.09
2022-11-01T18:47:38.920Z,101053.03
2022-11-01T18:50:12.804Z,101051.41
2022-11-01T18:52:42.842Z,101057.63
2022-11-01T18:55:13.756Z,101052.47
2022-11-01T18:57:40.672Z,101059.50
2022-11-01T19:00:14.088Z,101064.91
2022-11-01T19:02:41.131Z,101072.84
2022-11-01T19:05:17.255Z,101080.84
2022-11-01T19:08:09.614Z,101066.00
2022-11-01T19:10:35.285Z,101070.47
2022-11-01T19:13:02.084Z,101071.44
2022-11-01T19:15:30.515Z,101072.44
2022-11-01T19:18:03.425Z,101070.75
2022-11-01T19:20:32.466Z,101071.69
2022-11-01T19:23:03.770Z,101077.06
2022-11-01T19:25:33.122Z,101079.75
2022-11-01T19:28:04.608Z,101073.56
2022-11-01T19:30:35.333Z,101078.00
2022-11-01T19:33:24.569Z,101072.75
2022-11-01T19:35:53.575Z,101068.38
2022-11-01T19:38:20.471Z,101071.97
2022-11-01T19:40:51.260Z,101073.72
2022-11-01T19:43:23.613Z,101084.31
2022-11-01T19:45:52.723Z,101086.22
2022-11-01T19:48:26.351Z,101083.63
2022-11-01T19:50:53.005Z,101088.09
2022-11-01T19:53:31.854Z,101095.16
2022-11-01T19:56:07.836Z,101092.50
2022-11-01T19:58:49.115Z,101089.03
2022-11-01T20:01:31.032Z,101096.09
2022-11-01T20:04:19.390Z,101092.66
2022-11-01T20:07:02.139Z,101098.75
2022-11-01T20:09:38.231Z,101095.31
2022-11-01T20:12:09.706Z,101097.09
2022-11-01T20:14:36.787Z,101103.25
2022-11-01T20:17:09.982Z,101111.22
2022-11-01T20:19:37.137Z,101113.00
2022-11-01T20:22:04.654Z,101112.13
2022-11-01T20:24:31.748Z,101108.69
2022-11-01T20:27:00.771Z,101115.78
2022-11-01T20:29:29.562Z,101114.00
2022-11-01T20:31:59.682Z,101125.44
2022-11-01T20:34:28.722Z,101123.72
2022-11-01T20:37:29.727Z,101128.13
2022-11-01T20:39:49.180Z,101129.03
2022-11-01T20:42:17.914Z,101139.59
2022-11-01T20:44:44.629Z,101139.63
2022-11-01T20:47:11.277Z,101131.75
2022-11-01T20:49:37.931Z,101127.38
2022-11-01T20:52:38.697Z,101135.31
2022-11-01T20:54:52.555Z,101140.59
2022-11-01T20:57:27.556Z,101140.59
2022-11-01T20:59:55.681Z,101142.38
2022-11-01T21:02:25.547Z,101145.06
2022-11-01T21:05:04.594Z,101146.81
2022-11-01T21:07:33.056Z,101138.06
2022-11-01T21:09:59.835Z,101139.84
2022-11-01T21:12:39.174Z,101143.34
2022-11-01T21:15:29.199Z,101145.97
2022-11-01T21:18:08.149Z,101144.22
2022-11-01T21:21:01.129Z,101133.72
2022-11-01T21:23:35.787Z,101136.34
2022-11-01T21:26:10.025Z,101135.47
2022-11-01T21:28:40.553Z,101138.97
2022-11-01T21:31:10.782Z,101135.47
2022-11-01T21:33:42.316Z,101135.50
2022-11-01T21:36:21.178Z,101125.88
2022-11-01T21:38:52.399Z,101127.63
2022-11-01T21:41:26.717Z,101121.47
2022-11-01T21:43:53.504Z,101130.25
2022-11-01T21:46:24.819Z,101122.38
2022-11-01T21:48:56.988Z,101119.78
2022-11-01T21:51:26.403Z,101120.66
2022-11-01T21:53:53.102Z,101112.78
2022-11-01T21:56:19.901Z,101109.22
2022-11-01T21:58:46.667Z,101106.59
2022-11-01T22:01:14.121Z,101096.09
2022-11-01T22:03:40.811Z,101094.31
2022-11-01T22:06:10.112Z,101094.38
2022-11-01T22:08:38.138Z,101095.25
2022-11-01T22:11:07.520Z,101099.63
2022-11-01T22:13:34.129Z,101103.16
2022-11-01T22:16:01.037Z,101109.28
2022-11-01T22:18:27.719Z,101112.81
2022-11-01T22:20:56.745Z,101113.69
2022-11-01T22:23:23.544Z,101118.06
2022-11-01T22:25:54.348Z,101113.72
2022-11-01T22:28:21.167Z,101122.47
2022-11-01T22:30:51.445Z,101117.22
2022-11-01T22:33:18.445Z,101111.06
2022-11-01T22:35:45.300Z,101111.94
2022-11-01T22:38:23.135Z,101113.72
2022-11-01T22:43:24.092Z,101118.97
2022-11-01T22:45:52.947Z,101116.31
2022-11-01T22:48:25.639Z,101112.81
2022-11-01T22:50:56.069Z,101122.44
2022-11-01T22:53:23.187Z,101117.19
2022-11-01T22:55:53.597Z,101116.34
2022-11-01T22:58:37.793Z,101126.81
2022-11-01T23:01:27.748Z,101119.81
2022-11-01T23:03:59.097Z,101118.91
2022-11-01T23:06:33.003Z,101123.31
2022-11-01T23:09:32.314Z,101117.19
2022-11-01T23:12:17.678Z,101109.28
2022-11-01T23:14:47.734Z,101114.53
2022-11-01T23:17:22.885Z,101118.03
2022-11-01T23:20:00.611Z,101119.78
2022-11-01T23:22:37.731Z,101122.41
2022-11-01T23:25:08.369Z,101124.13
2022-11-01T23:27:39.141Z,101119.75
2022-11-01T23:30:06.084Z,101120.63
2022-11-01T23:32:32.913Z,101122.38
2022-11-01T23:35:19.997Z,101118.88
2022-11-01T23:37:51.632Z,101125.84
2022-11-01T23:40:22.581Z,101123.22
2022-11-01T23:42:49.529Z,101127.56
2022-11-01T23:45:25.451Z,101128.44
2022-11-01T23:47:52.753Z,101125.81
2022-11-01T23:50:30.821Z,101122.31
2022-11-01T23:53:18.667Z,101122.31
2022-11-01T23:55:51.394Z,101120.56
2022-11-01T23:58:32.700Z,101126.69
